createdAt,value
2022-08-05T00:00:16.509Z,23.97
2022-08-05T00:01:20.646Z,23.97
2022-08-05T00:02:16.096Z,23.89
2022-08-05T00:03:16.068Z,23.73
2022-08-05T00:04:16.027Z,23.82
2022-08-05T00:06:03.134Z,23.74
2022-08-05T00:06:29.133Z,23.79
2022-08-05T00:07:27.039Z,23.73
2022-08-05T00:08:32.511Z,23.63
2022-08-05T00:09:19.598Z,23.41
2022-08-05T00:10:15.952Z,23.34
2022-08-05T00:11:20.697Z,23.25
2022-08-05T00:12:15.924Z,23.28
2022-08-05T00:13:18.687Z,23.34
2022-08-05T00:14:16.925Z,23.37
2022-08-05T00:15:56.051Z,23.37
2022-08-05T00:16:15.871Z,23.36
2022-08-05T00:17:18.761Z,23.42
2022-08-05T00:18:22.500Z,23.45
2022-08-05T00:19:15.832Z,23.46
2022-08-05T00:20:15.823Z,23.54
2022-08-05T00:21:15.807Z,23.54
2022-08-05T00:22:15.800Z,23.55
2022-08-05T00:23:15.787Z,23.45
2022-08-05T00:24:18.965Z,23.34
2022-08-05T00:25:15.757Z,23.22
2022-08-05T00:26:16.468Z,23.18
2022-08-05T00:27:16.646Z,23.22
2022-08-05T00:28:15.715Z,23.14
2022-08-05T00:29:15.710Z,23.15
2022-08-05T00:30:15.703Z,23.08
2022-08-05T00:31:15.679Z,23.10
2022-08-05T00:32:15.878Z,23.10
2022-08-05T00:34:55.704Z,22.99
2022-08-05T00:34:56.930Z,23.06
2022-08-05T00:35:15.634Z,23.04
2022-08-05T00:36:37.721Z,23.01
2022-08-05T00:37:15.601Z,22.92
2022-08-05T00:38:15.585Z,22.89
2022-08-05T00:39:15.679Z,22.83
2022-08-05T00:40:17.869Z,22.88
2022-08-05T00:41:15.548Z,22.86
2022-08-05T00:42:31.403Z,22.93
2022-08-05T00:43:15.538Z,22.77
2022-08-05T00:44:15.516Z,22.78
2022-08-05T00:45:15.500Z,22.83
2022-08-05T00:46:15.484Z,22.78
2022-08-05T00:47:16.484Z,22.71
2022-08-05T00:48:15.463Z,22.76
2022-08-05T00:49:15.445Z,22.78
2022-08-05T00:50:15.433Z,22.76
2022-08-05T00:51:51.080Z,22.74
2022-08-05T00:52:15.404Z,22.78
2022-08-05T00:53:45.114Z,22.80
2022-08-05T00:54:15.379Z,22.76
2022-08-05T00:55:15.367Z,22.80
2022-08-05T00:56:17.302Z,22.71
2022-08-05T00:57:15.439Z,22.77
2022-08-05T00:58:15.325Z,22.71
2022-08-05T00:59:15.326Z,22.76
2022-08-05T01:00:15.307Z,22.64
2022-08-05T01:01:15.389Z,22.61
2022-08-05T01:02:15.273Z,22.53
2022-08-05T01:03:23.082Z,22.62
2022-08-05T01:04:15.747Z,22.52
2022-08-05T01:05:15.234Z,22.49
2022-08-05T01:06:15.543Z,22.44
2022-08-05T01:07:15.315Z,22.46
2022-08-05T01:08:39.169Z,22.51
2022-08-05T01:09:15.182Z,22.43
2022-08-05T01:10:15.164Z,22.53
2022-08-05T01:11:22.646Z,22.51
2022-08-05T01:12:18.023Z,22.55
2022-08-05T01:13:19.422Z,22.53
2022-08-05T01:14:15.616Z,22.61
2022-08-05T01:15:35.489Z,22.62
2022-08-05T01:16:15.090Z,22.67
2022-08-05T01:17:15.113Z,22.73
2022-08-05T01:18:15.062Z,22.77
2022-08-05T01:19:15.055Z,22.71
2022-08-05T01:20:15.033Z,22.77
2022-08-05T01:21:22.797Z,22.77
2022-08-05T01:22:15.633Z,22.70
2022-08-05T01:23:23.405Z,22.71
2022-08-05T01:24:14.985Z,22.76
2022-08-05T01:25:14.981Z,22.70
2022-08-05T01:26:14.955Z,22.68
2022-08-05T01:27:32.918Z,22.64
2022-08-05T01:28:14.927Z,22.73
2022-08-05T01:29:14.914Z,22.62
2022-08-05T01:30:18.911Z,22.61
2022-08-05T01:31:14.891Z,22.67
2022-08-05T01:32:18.574Z,22.55
2022-08-05T01:33:14.862Z,22.48
2022-08-05T01:34:14.852Z,22.46
2022-08-05T01:35:51.195Z,22.52
2022-08-05T01:36:16.164Z,22.46
2022-08-05T01:37:24.727Z,22.38
2022-08-05T01:38:14.794Z,22.44
2022-08-05T01:39:14.834Z,22.41
2022-08-05T01:40:14.769Z,22.37
2022-08-05T01:41:14.774Z,22.44
2022-08-05T01:42:15.216Z,22.46
2022-08-05T01:43:22.067Z,22.37
2022-08-05T01:44:15.360Z,22.38
2022-08-05T01:45:14.707Z,22.34
2022-08-05T01:46:16.243Z,22.33
2022-08-05T01:47:14.679Z,22.27
2022-08-05T01:48:14.661Z,22.21
2022-08-05T01:49:23.765Z,22.23
2022-08-05T01:50:15.627Z,22.23
2022-08-05T01:51:14.618Z,22.31
2022-08-05T01:52:17.574Z,22.31
2022-08-05T01:53:14.586Z,22.31
2022-08-05T01:54:14.577Z,22.40
2022-08-05T01:55:14.568Z,22.36
2022-08-05T01:58:10.899Z,22.41
2022-08-05T01:58:11.345Z,22.34
2022-08-05T01:58:15.749Z,22.31
2022-08-05T01:59:14.511Z,22.25
2022-08-05T02:00:14.500Z,22.12
2022-08-05T02:01:14.608Z,22.18
2022-08-05T02:02:15.791Z,22.09
2022-08-05T02:03:16.319Z,22.01
2022-08-05T02:04:14.442Z,22.07
2022-08-05T02:05:14.427Z,22.00
2022-08-05T02:06:37.523Z,22.04
2022-08-05T02:07:21.955Z,21.91
2022-08-05T02:08:14.388Z,21.88
2022-08-05T02:09:14.615Z,21.94
2022-08-05T02:10:14.368Z,21.77
2022-08-05T02:11:14.349Z,21.84
2022-08-05T02:12:14.333Z,21.85
2022-08-05T02:13:16.295Z,21.91
2022-08-05T02:14:14.309Z,21.91
2022-08-05T02:15:14.297Z,21.88
2022-08-05T02:16:16.389Z,21.91
2022-08-05T02:17:23.487Z,21.98
2022-08-05T02:18:31.857Z,21.88
2022-08-05T02:19:14.242Z,21.93
2022-08-05T02:20:14.227Z,21.88
2022-08-05T02:21:15.151Z,21.84
2022-08-05T02:22:25.529Z,21.85
2022-08-05T02:23:14.902Z,21.74
2022-08-05T02:24:14.166Z,21.80
2022-08-05T02:25:14.153Z,21.77
2022-08-05T02:26:14.141Z,21.60
2022-08-05T02:27:14.130Z,21.56
2022-08-05T02:28:14.115Z,21.55
2022-08-05T02:29:21.399Z,21.58
2022-08-05T02:30:14.083Z,21.51
2022-08-05T02:31:14.916Z,21.56
2022-08-05T02:32:19.834Z,21.59
2022-08-05T02:33:14.047Z,21.50
2022-08-05T02:34:14.032Z,21.56
2022-08-05T02:35:14.521Z,21.56
2022-08-05T02:36:15.364Z,21.66
2022-08-05T02:37:13.993Z,21.69
2022-08-05T02:38:19.145Z,21.67
2022-08-05T02:39:14.090Z,21.71
2022-08-05T02:40:13.942Z,21.75
2022-08-05T02:41:17.156Z,21.74
2022-08-05T02:42:27.633Z,21.65
2022-08-05T02:43:13.907Z,21.69
2022-08-05T02:44:13.898Z,21.59
2022-08-05T02:45:13.875Z,21.63
2022-08-05T02:46:16.321Z,21.55
2022-08-05T02:47:13.849Z,21.55
2022-08-05T02:48:13.831Z,21.60
2022-08-05T02:49:13.823Z,21.62
2022-08-05T02:50:13.806Z,21.59
2022-08-05T02:51:13.792Z,21.53
2022-08-05T02:52:30.148Z,21.60
2022-08-05T02:53:18.675Z,21.59
2022-08-05T02:54:35.667Z,21.73
2022-08-05T02:55:13.738Z,21.73
2022-08-05T02:56:16.093Z,21.62
2022-08-05T02:58:12.295Z,21.74
2022-08-05T02:58:13.813Z,21.77
2022-08-05T02:59:13.682Z,21.77
2022-08-05T03:00:13.670Z,21.75
2022-08-05T03:01:13.692Z,21.69
2022-08-05T03:02:13.635Z,21.77
2022-08-05T03:03:13.622Z,21.62
2022-08-05T03:04:14.411Z,21.50
2022-08-05T03:05:13.598Z,21.55
2022-08-05T03:06:55.446Z,21.55
2022-08-05T03:07:24.601Z,21.55
2022-08-05T03:08:13.840Z,21.53
2022-08-05T03:09:15.743Z,21.48
2022-08-05T03:10:13.531Z,21.45
2022-08-05T03:11:54.694Z,21.40
2022-08-05T03:12:13.494Z,21.47
2022-08-05T03:13:16.651Z,21.35
2022-08-05T03:14:13.847Z,21.50
2022-08-05T03:15:13.459Z,21.47
2022-08-05T03:16:15.795Z,21.48
2022-08-05T03:17:13.431Z,21.56
2022-08-05T03:18:13.417Z,21.58
2022-08-05T03:19:20.380Z,21.48
2022-08-05T03:20:13.847Z,21.53
2022-08-05T03:21:13.372Z,21.56
2022-08-05T03:22:16.613Z,21.65
2022-08-05T03:23:13.346Z,21.56
2022-08-05T03:24:13.437Z,21.55
2022-08-05T03:26:03.485Z,21.62
2022-08-05T03:26:30.913Z,21.56
2022-08-05T03:27:13.289Z,21.62
2022-08-05T03:28:14.110Z,21.67
2022-08-05T03:29:13.258Z,21.59
2022-08-05T03:30:13.241Z,21.63
2022-08-05T03:31:18.321Z,21.65
2022-08-05T03:32:14.264Z,21.59
2022-08-05T03:33:13.203Z,21.50
2022-08-05T03:34:13.185Z,21.55
2022-08-05T03:35:13.174Z,21.50
2022-08-05T03:36:13.156Z,21.56
2022-08-05T03:37:13.148Z,21.56
2022-08-05T03:38:14.414Z,21.53
2022-08-05T03:39:20.079Z,21.62
2022-08-05T03:40:13.220Z,21.59
2022-08-05T03:41:13.094Z,21.62
2022-08-05T03:42:13.073Z,21.63
2022-08-05T03:43:58.646Z,21.58
2022-08-05T03:44:13.044Z,21.67
2022-08-05T03:45:22.197Z,21.62
2022-08-05T03:46:13.020Z,21.56
2022-08-05T03:47:13.632Z,21.58
2022-08-05T03:48:12.991Z,21.45
2022-08-05T03:49:12.979Z,21.55
2022-08-05T03:50:12.958Z,21.45
2022-08-05T03:52:49.112Z,21.55
2022-08-05T03:52:50.202Z,21.45
2022-08-05T03:55:49.808Z,21.53
2022-08-05T03:55:52.303Z,21.48
2022-08-05T03:56:04.879Z,21.55
2022-08-05T03:56:26.800Z,21.53
2022-08-05T03:57:16.344Z,21.56
2022-08-05T03:58:12.847Z,21.51
2022-08-05T03:59:12.834Z,21.55
2022-08-05T04:00:16.046Z,21.56
2022-08-05T04:01:13.418Z,21.40
2022-08-05T04:02:17.324Z,21.48
2022-08-05T04:03:14.909Z,21.47
2022-08-05T04:04:12.766Z,21.43
2022-08-05T04:05:12.751Z,21.41
2022-08-05T04:06:12.735Z,21.43
2022-08-05T04:07:12.723Z,21.47
2022-08-05T04:08:14.326Z,21.47
2022-08-05T04:09:12.695Z,21.45
2022-08-05T04:10:12.689Z,21.50
2022-08-05T04:11:12.661Z,21.50
2022-08-05T04:12:23.679Z,21.51
2022-08-05T04:13:12.641Z,21.53
2022-08-05T04:14:18.159Z,21.60
2022-08-05T04:15:15.573Z,21.51
2022-08-05T04:16:12.594Z,21.56
2022-08-05T04:17:12.582Z,21.59
2022-08-05T04:18:22.510Z,21.51
2022-08-05T04:19:12.550Z,21.58
2022-08-05T04:20:12.534Z,21.59
2022-08-05T04:21:12.522Z,21.55
2022-08-05T04:22:12.506Z,21.48
2022-08-05T04:23:16.169Z,21.34
2022-08-05T04:24:19.203Z,21.34
2022-08-05T04:25:12.469Z,21.34
2022-08-05T04:26:12.450Z,21.28
2022-08-05T04:27:12.441Z,21.23
2022-08-05T04:28:12.928Z,21.30
2022-08-05T04:29:12.412Z,21.22
2022-08-05T04:30:12.403Z,21.25
2022-08-05T04:31:12.378Z,21.29
2022-08-05T04:32:12.368Z,21.29
2022-08-05T04:33:12.355Z,21.35
2022-08-05T04:34:18.639Z,21.38
2022-08-05T04:35:17.391Z,21.45
2022-08-05T04:36:38.623Z,21.30
2022-08-05T04:37:21.013Z,21.38
2022-08-05T04:38:12.275Z,21.34
2022-08-05T04:39:12.388Z,21.43
2022-08-05T04:40:12.251Z,21.48
2022-08-05T04:41:12.242Z,21.35
2022-08-05T04:42:12.229Z,21.37
2022-08-05T04:43:16.660Z,21.23
2022-08-05T04:44:12.192Z,21.25
2022-08-05T04:45:12.179Z,21.14
2022-08-05T04:46:12.165Z,21.10
2022-08-05T04:47:15.797Z,21.08
2022-08-05T04:48:18.684Z,21.16
2022-08-05T04:49:14.915Z,21.14
2022-08-05T04:50:12.108Z,21.14
2022-08-05T04:51:12.099Z,21.19
2022-08-05T04:52:12.080Z,21.16
2022-08-05T04:53:12.066Z,21.11
2022-08-05T04:54:12.322Z,21.05
2022-08-05T04:55:14.286Z,21.05
2022-08-05T04:56:33.192Z,21.05
2022-08-05T04:57:12.011Z,21.07
2022-08-05T04:58:12.451Z,21.14
2022-08-05T04:59:22.429Z,21.08
2022-08-05T05:00:11.970Z,21.11
2022-08-05T05:01:12.007Z,21.08
2022-08-05T05:02:36.282Z,20.97
2022-08-05T05:03:12.053Z,21.00
2022-08-05T05:04:11.907Z,21.00
2022-08-05T05:05:16.907Z,21.01
2022-08-05T05:06:36.067Z,21.04
2022-08-05T05:07:11.861Z,21.00
2022-08-05T05:08:14.394Z,21.00
2022-08-05T05:09:14.265Z,20.89
2022-08-05T05:10:11.822Z,20.92
2022-08-05T05:11:11.803Z,20.90
2022-08-05T05:12:11.871Z,20.86
2022-08-05T05:13:11.777Z,20.89
2022-08-05T05:14:16.000Z,20.86
2022-08-05T05:15:11.758Z,20.75
2022-08-05T05:16:11.751Z,20.74
2022-08-05T05:17:11.718Z,20.68
2022-08-05T05:18:11.703Z,20.70
2022-08-05T05:19:19.177Z,20.53
2022-08-05T05:20:11.675Z,20.56
2022-08-05T05:21:11.659Z,20.53
2022-08-05T05:22:24.533Z,20.58
2022-08-05T05:23:19.607Z,20.56
2022-08-05T05:24:11.617Z,20.60
2022-08-05T05:25:16.586Z,20.52
2022-08-05T05:26:11.585Z,20.52
2022-08-05T05:27:11.574Z,20.63
2022-08-05T05:28:11.553Z,20.61
2022-08-05T05:29:14.694Z,20.64
2022-08-05T05:30:15.709Z,20.67
2022-08-05T05:31:11.515Z,20.63
2022-08-05T05:32:12.727Z,20.70
2022-08-05T05:33:17.169Z,20.65
2022-08-05T05:34:11.468Z,20.68
2022-08-05T05:35:11.455Z,20.68
2022-08-05T05:36:11.436Z,20.61
2022-08-05T05:37:11.426Z,20.71
2022-08-05T05:38:12.832Z,20.70
2022-08-05T05:39:11.393Z,20.70
2022-08-05T05:40:11.381Z,20.63
2022-08-05T05:41:12.258Z,20.70
2022-08-05T05:42:11.351Z,20.70
2022-08-05T05:43:11.337Z,20.63
2022-08-05T05:44:35.445Z,20.71
2022-08-05T05:45:11.316Z,20.79
2022-08-05T05:46:15.687Z,20.88
2022-08-05T05:47:21.350Z,20.92
2022-08-05T05:48:11.263Z,20.88
2022-08-05T05:49:23.110Z,20.92
2022-08-05T05:50:11.234Z,20.90
2022-08-05T05:51:15.865Z,20.89
2022-08-05T05:52:13.304Z,20.82
2022-08-05T05:53:21.235Z,20.82
2022-08-05T05:54:11.535Z,20.82
2022-08-05T05:55:13.652Z,20.85
2022-08-05T05:56:11.143Z,20.80
2022-08-05T05:57:13.755Z,20.73
2022-08-05T05:58:11.115Z,20.73
2022-08-05T05:59:11.101Z,20.86
2022-08-05T06:00:11.094Z,20.88
2022-08-05T06:01:13.258Z,20.90
2022-08-05T06:02:11.059Z,20.89
2022-08-05T06:03:40.096Z,20.95
2022-08-05T06:04:11.794Z,20.90
2022-08-05T06:05:16.471Z,20.93
2022-08-05T06:06:11.004Z,20.92
2022-08-05T06:07:10.986Z,20.93
2022-08-05T06:08:10.970Z,20.92
2022-08-05T06:09:24.549Z,20.98
2022-08-05T06:10:10.942Z,20.98
2022-08-05T06:11:10.924Z,20.97
2022-08-05T06:12:12.120Z,20.89
2022-08-05T06:13:10.897Z,20.93
2022-08-05T06:14:10.882Z,20.93
2022-08-05T06:15:16.452Z,20.97
2022-08-05T06:16:29.970Z,20.90
2022-08-05T06:17:32.254Z,20.92
2022-08-05T06:18:10.825Z,20.83
2022-08-05T06:19:10.810Z,20.80
2022-08-05T06:20:18.822Z,20.86
2022-08-05T06:21:18.680Z,20.79
2022-08-05T06:22:10.770Z,20.86
2022-08-05T06:23:10.757Z,20.89
2022-08-05T06:24:11.736Z,20.89
2022-08-05T06:25:24.479Z,20.83
2022-08-05T06:26:20.809Z,20.95
2022-08-05T06:27:17.276Z,20.90
2022-08-05T06:28:21.606Z,20.83
2022-08-05T06:29:25.063Z,20.65
2022-08-05T06:30:16.931Z,20.73
2022-08-05T06:31:11.053Z,20.64
2022-08-05T06:32:17.277Z,20.58
2022-08-05T06:33:10.854Z,20.52
2022-08-05T06:34:10.589Z,20.52
2022-08-05T06:35:15.526Z,20.58
2022-08-05T06:36:10.558Z,20.50
2022-08-05T06:37:10.549Z,20.56
2022-08-05T06:38:11.622Z,20.58
2022-08-05T06:39:10.573Z,20.53
2022-08-05T06:40:10.513Z,20.34
2022-08-05T06:41:11.606Z,20.37
2022-08-05T06:42:10.472Z,20.34
2022-08-05T06:43:58.000Z,20.39
2022-08-05T06:44:10.444Z,20.29
2022-08-05T06:45:10.430Z,20.32
2022-08-05T06:46:10.410Z,20.34
2022-08-05T06:47:29.895Z,20.34
2022-08-05T06:48:37.015Z,20.25
2022-08-05T06:49:10.374Z,20.23
2022-08-05T06:50:10.354Z,20.37
2022-08-05T06:51:22.732Z,20.33
2022-08-05T06:52:36.908Z,20.34
2022-08-05T06:53:19.526Z,20.48
2022-08-05T06:54:10.296Z,20.46
2022-08-05T06:55:10.285Z,20.52
2022-08-05T06:56:11.660Z,20.60
2022-08-05T06:57:58.118Z,20.60
2022-08-05T06:58:19.899Z,20.56
2022-08-05T06:59:11.901Z,20.56
2022-08-05T07:00:10.214Z,20.58
2022-08-05T07:01:10.235Z,20.60
2022-08-05T07:02:10.181Z,20.61
2022-08-05T07:03:10.166Z,20.52
2022-08-05T07:04:10.162Z,20.56
2022-08-05T07:05:14.258Z,20.46
2022-08-05T07:06:14.302Z,20.33
2022-08-05T07:07:10.118Z,20.39
2022-08-05T07:08:11.117Z,20.34
2022-08-05T07:09:10.075Z,20.37
2022-08-05T07:10:10.070Z,20.41
2022-08-05T07:11:15.522Z,20.34
2022-08-05T07:12:10.037Z,20.34
2022-08-05T07:13:10.063Z,20.52
2022-08-05T07:14:20.010Z,20.50
2022-08-05T07:15:09.989Z,20.53
2022-08-05T07:16:12.096Z,20.52
2022-08-05T07:17:58.332Z,20.50
2022-08-05T07:18:14.644Z,20.50
2022-08-05T07:19:09.940Z,20.52
2022-08-05T07:20:32.920Z,20.53
2022-08-05T07:21:09.903Z,20.58
2022-08-05T07:22:09.889Z,20.48
2022-08-05T07:23:09.872Z,20.52
2022-08-05T07:24:11.463Z,20.55
2022-08-05T07:25:23.981Z,20.49
2022-08-05T07:26:09.827Z,20.44
2022-08-05T07:27:09.815Z,20.44
2022-08-05T07:28:17.096Z,20.44
2022-08-05T07:29:09.782Z,20.49
2022-08-05T07:30:30.181Z,20.52
2022-08-05T07:31:09.757Z,20.55
2022-08-05T07:32:09.736Z,20.64
2022-08-05T07:33:10.675Z,20.65
2022-08-05T07:34:09.710Z,20.73
2022-08-05T07:36:01.625Z,20.73
2022-08-05T07:36:20.627Z,20.67
2022-08-05T07:37:11.716Z,20.79
2022-08-05T07:38:12.467Z,20.74
2022-08-05T07:39:24.622Z,20.74
2022-08-05T07:40:32.677Z,20.83
2022-08-05T07:42:07.098Z,20.89
2022-08-05T07:42:14.949Z,20.88
2022-08-05T07:43:14.787Z,20.95
2022-08-05T07:44:18.912Z,20.92
2022-08-05T07:45:09.551Z,20.88
2022-08-05T07:46:23.463Z,20.98
2022-08-05T07:47:10.186Z,20.83
2022-08-05T07:48:09.507Z,20.79
2022-08-05T07:49:09.490Z,20.79
2022-08-05T07:50:09.475Z,20.85
2022-08-05T07:51:23.848Z,20.80
2022-08-05T07:52:09.451Z,20.82
2022-08-05T07:53:09.427Z,20.77
2022-08-05T07:54:09.805Z,20.73
2022-08-05T07:55:15.907Z,20.71
2022-08-05T07:57:00.474Z,20.74
2022-08-05T07:57:22.406Z,20.73
2022-08-05T07:58:09.755Z,20.71
2022-08-05T07:59:09.344Z,20.73
2022-08-05T08:00:11.429Z,20.73
2022-08-05T08:01:12.127Z,20.64
2022-08-05T08:02:10.669Z,20.73
2022-08-05T08:03:15.004Z,20.70
2022-08-05T08:04:09.266Z,20.77
2022-08-05T08:05:09.252Z,20.75
2022-08-05T08:06:09.240Z,20.82
2022-08-05T08:07:09.220Z,20.71
2022-08-05T08:08:12.457Z,20.73
2022-08-05T08:09:09.201Z,20.73
2022-08-05T08:10:09.179Z,20.65
2022-08-05T08:11:09.163Z,20.71
2022-08-05T08:12:35.429Z,20.63
2022-08-05T08:13:09.136Z,20.61
2022-08-05T08:14:09.125Z,20.68
2022-08-05T08:15:14.310Z,20.65
2022-08-05T08:16:35.426Z,20.67
2022-08-05T08:17:09.075Z,20.67
2022-08-05T08:18:13.868Z,20.63
2022-08-05T08:19:09.050Z,20.56
2022-08-05T08:20:43.642Z,20.67
2022-08-05T08:21:09.690Z,20.63
2022-08-05T08:22:09.194Z,20.64
2022-08-05T08:23:59.683Z,20.67
2022-08-05T08:24:13.781Z,20.65
2022-08-05T08:25:16.194Z,20.70
2022-08-05T08:26:08.950Z,20.65
2022-08-05T08:27:08.942Z,20.60
2022-08-05T08:28:18.359Z,20.63
2022-08-05T08:29:45.188Z,20.67
2022-08-05T08:30:27.630Z,20.68
2022-08-05T08:31:08.873Z,20.73
2022-08-05T08:32:10.846Z,20.75
2022-08-05T08:33:08.849Z,20.70
2022-08-05T08:34:08.828Z,20.65
2022-08-05T08:35:13.669Z,20.73
2022-08-05T08:37:08.831Z,20.70
2022-08-05T08:38:16.264Z,20.65
2022-08-05T08:39:15.577Z,20.73
2022-08-05T08:40:08.743Z,20.70
2022-08-05T08:41:08.840Z,20.75
2022-08-05T08:42:32.530Z,20.74
2022-08-05T08:45:17.109Z,20.88
2022-08-05T08:45:18.773Z,20.89
2022-08-05T08:45:21.153Z,20.89
2022-08-05T08:46:09.950Z,20.97
2022-08-05T08:47:21.785Z,20.92
2022-08-05T08:48:22.314Z,20.95
2022-08-05T08:50:14.490Z,20.77
2022-08-05T08:50:30.710Z,20.74
2022-08-05T08:52:02.348Z,20.77
2022-08-05T08:52:13.652Z,20.63
2022-08-05T08:53:12.310Z,20.71
2022-08-05T08:54:08.540Z,20.70
2022-08-05T08:55:13.042Z,20.63
2022-08-05T08:56:08.505Z,20.73
2022-08-05T08:57:11.308Z,20.68
2022-08-05T08:58:08.675Z,20.65
2022-08-05T08:59:14.673Z,20.74
2022-08-05T09:00:08.444Z,20.74
2022-08-05T09:01:11.048Z,20.71
2022-08-05T09:02:08.823Z,20.68
2022-08-05T09:03:08.407Z,20.71
2022-08-05T09:04:10.661Z,20.68
2022-08-05T09:05:17.643Z,20.74
2022-08-05T09:06:11.064Z,20.75
2022-08-05T09:07:10.678Z,20.71
2022-08-05T09:08:09.747Z,20.88
2022-08-05T09:09:08.321Z,20.88
2022-08-05T09:10:08.303Z,20.73
2022-08-05T09:11:08.286Z,20.77
2022-08-05T09:12:20.068Z,20.77
2022-08-05T09:13:08.289Z,20.73
2022-08-05T09:14:54.095Z,20.70
2022-08-05T09:15:08.238Z,20.68
2022-08-05T09:16:08.216Z,20.67
2022-08-05T09:17:09.427Z,20.50
2022-08-05T09:18:08.885Z,20.55
2022-08-05T09:19:08.169Z,20.58
2022-08-05T09:20:08.524Z,20.61
2022-08-05T09:21:11.519Z,20.60
2022-08-05T09:22:22.290Z,20.56
2022-08-05T09:23:09.447Z,20.52
2022-08-05T09:24:08.097Z,20.50
2022-08-05T09:25:23.827Z,20.48
2022-08-05T09:26:09.235Z,20.56
2022-08-05T09:27:08.051Z,20.56
2022-08-05T09:28:08.039Z,20.56
2022-08-05T09:29:08.854Z,20.68
2022-08-05T09:30:08.005Z,20.68
2022-08-05T09:31:22.151Z,20.68
2022-08-05T09:32:41.398Z,20.70
2022-08-05T09:33:07.975Z,20.65
2022-08-05T09:34:09.917Z,20.68
2022-08-05T09:35:07.940Z,20.70
2022-08-05T09:36:11.719Z,20.71
2022-08-05T09:37:15.241Z,20.83
2022-08-05T09:38:12.391Z,20.86
2022-08-05T09:39:18.076Z,20.83
2022-08-05T09:40:07.922Z,20.86
2022-08-05T09:41:08.144Z,20.98
2022-08-05T09:42:07.934Z,20.88
2022-08-05T09:43:08.481Z,20.79
2022-08-05T09:44:07.812Z,20.77
2022-08-05T09:46:04.884Z,20.75
2022-08-05T09:46:08.940Z,20.92
2022-08-05T09:47:10.409Z,20.86
2022-08-05T09:48:07.744Z,20.88
2022-08-05T09:49:19.455Z,20.97
2022-08-05T09:50:08.325Z,20.95
2022-08-05T09:51:14.772Z,21.00
2022-08-05T09:52:07.688Z,21.00
2022-08-05T09:53:08.749Z,21.03
2022-08-05T09:54:07.656Z,20.93
2022-08-05T09:55:57.168Z,20.98
2022-08-05T09:56:13.184Z,20.98
2022-08-05T09:57:23.325Z,21.00
2022-08-05T09:58:07.607Z,21.04
2022-08-05T09:59:07.587Z,21.07
2022-08-05T10:00:07.883Z,21.03
2022-08-05T10:01:14.616Z,21.10
2022-08-05T10:02:07.543Z,21.16
2022-08-05T10:03:07.601Z,21.14
2022-08-05T10:04:10.572Z,21.11
2022-08-05T10:05:07.873Z,21.14
2022-08-05T10:06:07.798Z,21.16
2022-08-05T10:07:20.310Z,21.13
2022-08-05T10:08:35.740Z,21.19
2022-08-05T10:09:07.458Z,21.18
2022-08-05T10:10:15.150Z,21.22
2022-08-05T10:11:07.417Z,21.18
2022-08-05T10:12:18.629Z,21.22
2022-08-05T10:13:09.807Z,21.28
2022-08-05T10:14:07.367Z,21.25
2022-08-05T10:15:07.356Z,21.30
2022-08-05T10:16:07.340Z,21.34
2022-08-05T10:17:07.331Z,21.43
2022-08-05T10:18:07.315Z,21.44
2022-08-05T10:19:09.456Z,21.37
2022-08-05T10:20:09.955Z,21.45
2022-08-05T10:21:11.691Z,21.48
2022-08-05T10:22:07.260Z,21.48
2022-08-05T10:23:08.923Z,21.48
2022-08-05T10:24:10.795Z,21.47
2022-08-05T10:25:07.217Z,21.50
2022-08-05T10:26:07.322Z,21.59
2022-08-05T10:27:07.598Z,21.50
2022-08-05T10:28:13.936Z,21.50
2022-08-05T10:29:07.161Z,21.50
2022-08-05T10:31:20.393Z,21.50
2022-08-05T10:32:47.307Z,21.59
2022-08-05T10:32:53.762Z,21.59
2022-08-05T10:33:07.420Z,21.65
2022-08-05T10:34:08.132Z,21.62
2022-08-05T10:35:07.081Z,21.66
2022-08-05T10:36:07.062Z,21.73
2022-08-05T10:37:07.045Z,21.62
2022-08-05T10:38:08.326Z,21.67
2022-08-05T10:39:10.437Z,21.62
2022-08-05T10:40:17.867Z,21.62
2022-08-05T10:41:07.030Z,21.65
2022-08-05T10:42:06.976Z,21.65
2022-08-05T10:43:06.964Z,21.63
2022-08-05T10:44:07.028Z,21.71
2022-08-05T10:45:09.587Z,21.74
2022-08-05T10:46:07.221Z,21.75
2022-08-05T10:47:10.241Z,21.84
2022-08-05T10:48:31.127Z,21.85
2022-08-05T10:49:10.004Z,21.94
2022-08-05T10:50:33.080Z,21.96
2022-08-05T10:51:22.074Z,21.93
2022-08-05T10:52:10.492Z,22.00
2022-08-05T10:53:06.824Z,22.16
2022-08-05T10:54:28.202Z,22.16
2022-08-05T10:55:06.802Z,22.21
2022-08-05T10:56:14.513Z,22.34
2022-08-05T10:57:06.775Z,22.41
2022-08-05T10:58:06.756Z,22.61
2022-08-05T10:59:12.154Z,22.61
2022-08-05T11:00:09.979Z,22.66
2022-08-05T11:01:06.728Z,22.74
2022-08-05T11:02:06.798Z,22.86
2022-08-05T11:03:23.424Z,22.89
2022-08-05T11:04:06.680Z,22.99
2022-08-05T11:05:06.667Z,22.93
2022-08-05T11:06:14.525Z,22.92
2022-08-05T11:07:06.656Z,22.95
2022-08-05T11:08:21.686Z,22.95
2022-08-05T11:09:06.614Z,23.01
2022-08-05T11:10:09.838Z,23.06
2022-08-05T11:11:14.631Z,23.07
2022-08-05T11:12:06.574Z,23.17
2022-08-05T11:13:06.556Z,23.17
2022-08-05T11:14:06.576Z,23.03
2022-08-05T11:15:19.810Z,23.06
2022-08-05T11:16:06.514Z,23.25
2022-08-05T11:17:59.654Z,23.21
2022-08-05T11:18:06.501Z,23.23
2022-08-05T11:20:11.093Z,23.36
2022-08-05T11:20:15.739Z,23.26
2022-08-05T11:21:11.785Z,23.36
2022-08-05T11:22:06.444Z,23.42
2022-08-05T11:23:10.469Z,23.56
2022-08-05T11:24:14.767Z,23.64
2022-08-05T11:26:03.386Z,23.66
2022-08-05T11:26:09.208Z,23.82
2022-08-05T11:27:06.374Z,24.01
2022-08-05T11:28:06.370Z,24.22
2022-08-05T11:29:13.026Z,24.44
2022-08-05T11:30:06.335Z,24.55
2022-08-05T11:31:06.848Z,24.60
2022-08-05T11:32:06.310Z,24.68
2022-08-05T11:33:06.303Z,24.93
2022-08-05T11:34:06.293Z,25.09
2022-08-05T11:35:06.273Z,25.22
2022-08-05T11:36:08.620Z,25.30
2022-08-05T11:38:30.693Z,25.30
2022-08-05T11:38:36.741Z,25.30
2022-08-05T11:39:06.277Z,25.37
2022-08-05T11:40:06.215Z,25.36
2022-08-05T11:41:35.123Z,25.46
2022-08-05T11:42:06.191Z,25.45
2022-08-05T11:43:06.180Z,25.58
2022-08-05T11:44:08.308Z,25.45
2022-08-05T11:45:06.162Z,25.58
2022-08-05T11:46:27.214Z,25.48
2022-08-05T11:47:14.157Z,25.56
2022-08-05T11:48:06.122Z,25.53
2022-08-05T11:49:06.117Z,25.51
2022-08-05T11:50:06.096Z,25.46
2022-08-05T11:51:06.095Z,25.63
2022-08-05T11:52:11.173Z,25.53
2022-08-05T11:53:06.376Z,25.49
2022-08-05T11:54:06.057Z,25.49
2022-08-05T11:55:07.322Z,25.67
2022-08-05T11:56:06.042Z,25.70
2022-08-05T11:57:08.196Z,25.68
2022-08-05T11:58:10.968Z,25.74
2022-08-05T11:59:05.997Z,25.93
2022-08-05T12:00:06.079Z,25.92
2022-08-05T12:01:08.319Z,26.05
2022-08-05T12:02:05.960Z,26.04
2022-08-05T12:03:05.977Z,26.05
2022-08-05T12:04:05.940Z,26.24
2022-08-05T12:05:06.816Z,26.26
2022-08-05T12:06:10.048Z,26.34
2022-08-05T12:07:05.907Z,26.46
2022-08-05T12:08:10.759Z,26.56
2022-08-05T12:09:05.891Z,26.63
2022-08-05T12:10:09.092Z,26.60
2022-08-05T12:11:06.207Z,26.63
2022-08-05T12:12:05.848Z,26.64
2022-08-05T12:13:16.478Z,26.64
2022-08-05T12:14:05.828Z,26.60
2022-08-05T12:15:05.819Z,26.53
2022-08-05T12:16:14.497Z,26.39
2022-08-05T12:17:05.797Z,26.49
2022-08-05T12:18:11.009Z,26.51
2022-08-05T12:19:05.772Z,26.46
2022-08-05T12:20:25.692Z,26.52
2022-08-05T12:21:05.752Z,26.48
2022-08-05T12:22:05.735Z,26.31
2022-08-05T12:23:05.736Z,26.23
2022-08-05T12:24:06.876Z,26.15
2022-08-05T12:25:05.710Z,26.03
2022-08-05T12:26:05.696Z,25.89
2022-08-05T12:27:09.903Z,25.75
2022-08-05T12:28:05.681Z,25.59
2022-08-05T12:29:05.669Z,25.70
2022-08-05T12:30:05.712Z,25.70
2022-08-05T12:31:05.768Z,25.19
2022-08-05T12:32:05.633Z,25.14
2022-08-05T12:33:07.165Z,25.04
2022-08-05T12:34:05.610Z,25.01
2022-08-05T12:35:05.594Z,25.04
2022-08-05T12:36:08.187Z,25.03
2022-08-05T12:37:05.572Z,25.12
2022-08-05T12:38:05.562Z,25.21
2022-08-05T12:39:07.024Z,25.30
2022-08-05T12:40:10.478Z,25.30
2022-08-05T12:41:08.586Z,25.33
2022-08-05T12:42:05.513Z,25.33
2022-08-05T12:43:05.958Z,25.37
2022-08-05T12:44:05.492Z,25.28
2022-08-05T12:45:09.514Z,25.33
2022-08-05T12:46:05.465Z,25.34
2022-08-05T12:47:05.456Z,25.27
2022-08-05T12:48:27.828Z,25.26
2022-08-05T12:49:12.910Z,25.36
2022-08-05T12:50:06.374Z,25.33
2022-08-05T12:51:05.415Z,25.31
2022-08-05T12:52:13.012Z,25.51
2022-08-05T12:53:05.388Z,25.59